Time;durP1;ratioP1;P1;durP2;ratioP2;P2;SDS_P1;SDS_P2;PMS_P1;PMS_P2;Temp;Humidity;BMP_temperature;BMP_pressure;BME280_temperature;BME280_humidity;BME280_pressure;Samples;Min_cycle;Max_cycle;Signal;HPM_P1;HPM_P2
2023/05/13 00:00:47;;;;;;;14.55;7.60;;;;;;;13.77;100.00;101870.66;5107174;27;20159;-48
2023/05/13 00:03:13;;;;;;;9.80;6.10;;;;;;;13.79;100.00;101865.16;5109432;27;20038;-50
2023/05/13 00:05:39;;;;;;;10.15;6.70;;;;;;;13.76;100.00;101855.69;5111575;27;20058;-50
2023/05/13 00:08:06;;;;;;;12.50;6.82;;;;;;;13.72;100.00;101868.53;5110723;27;20056;-49
2023/05/13 00:10:32;;;;;;;8.35;5.20;;;;;;;13.74;100.00;101863.84;5116239;27;20034;-50
2023/05/13 00:12:58;;;;;;;10.85;5.28;;;;;;;13.70;100.00;101867.88;5106255;27;20024;-51
2023/05/13 00:15:23;;;;;;;7.75;4.70;;;;;;;13.73;100.00;101878.19;5110078;27;20023;-50
2023/05/13 00:17:48;;;;;;;9.02;3.97;;;;;;;13.78;100.00;101874.16;5109938;27;20027;-50
2023/05/13 00:20:14;;;;;;;5.45;3.10;;;;;;;13.70;100.00;101875.84;5113983;27;20103;-47
2023/05/13 00:22:39;;;;;;;7.93;4.07;;;;;;;13.65;100.00;101875.56;5091318;27;20491;-49
2023/05/13 00:25:04;;;;;;;4.43;3.92;;;;;;;13.58;100.00;101863.97;5108966;27;20039;-50
2023/05/13 00:27:31;;;;;;;6.80;4.50;;;;;;;13.60;100.00;101848.63;5112862;27;20034;-50
2023/05/13 00:29:58;;;;;;;6.32;4.30;;;;;;;13.59;100.00;101857.63;5109433;27;20520;-48
2023/05/13 00:32:23;;;;;;;5.18;3.42;;;;;;;13.55;100.00;101850.16;5111845;27;20411;-48
2023/05/13 00:34:49;;;;;;;5.45;3.97;;;;;;;13.48;100.00;101852.72;5114838;27;20024;-49
2023/05/13 00:37:14;;;;;;;8.90;4.93;;;;;;;13.58;100.00;101853.31;5116531;27;20429;-48
2023/05/13 00:39:40;;;;;;;7.70;4.28;;;;;;;13.41;100.00;101843.75;5095963;27;20035;-48
2023/05/13 00:42:06;;;;;;;10.00;4.60;;;;;;;13.51;100.00;101841.69;5115637;27;20031;-47
2023/05/13 00:44:32;;;;;;;9.48;4.95;;;;;;;13.56;100.00;101846.50;5113028;27;20023;-52
2023/05/13 00:46:58;;;;;;;7.60;4.55;;;;;;;13.66;100.00;101844.44;5116167;27;20035;-50
2023/05/13 00:49:23;;;;;;;6.65;4.63;;;;;;;13.61;100.00;101842.28;5111709;27;20453;-47
2023/05/13 00:51:51;;;;;;;5.35;4.85;;;;;;;13.74;100.00;101844.38;5115214;27;20075;-50
2023/05/13 00:54:16;;;;;;;12.20;5.07;;;;;;;13.40;100.00;101829.63;5114315;27;20031;-46
2023/05/13 00:56:41;;;;;;;7.22;5.10;;;;;;;13.42;100.00;101834.75;5111353;27;20124;-47
2023/05/13 00:59:07;;;;;;;13.57;6.75;;;;;;;13.42;100.00;101840.09;5115895;27;20049;-47
2023/05/13 01:01:58;;;;;;;10.88;5.22;;;;;;;13.55;100.00;101837.66;5117253;27;20511;-46
2023/05/13 01:04:33;;;;;;;10.73;6.75;;;;;;;13.56;100.00;101835.84;5110507;27;20130;-48
2023/05/13 01:07:18;;;;;;;9.48;6.10;;;;;;;13.52;100.00;101830.03;5116927;27;20031;-45
2023/05/13 01:09:54;;;;;;;9.02;6.05;;;;;;;13.40;100.00;101829.63;5109091;27;20057;-47
2023/05/13 01:12:25;;;;;;;12.57;6.82;;;;;;;13.57;100.00;101837.50;5112715;27;20150;-47
2023/05/13 01:14:58;;;;;;;8.35;5.15;;;;;;;13.59;100.00;101838.97;5113523;27;20106;-48
2023/05/13 01:17:30;;;;;;;10.70;6.78;;;;;;;13.39;100.00;101843.09;5111060;27;20039;-44
2023/05/13 01:19:57;;;;;;;12.38;7.65;;;;;;;13.51;100.00;101839.03;5098836;27;20027;-44
2023/05/13 01:22:23;;;;;;;12.02;6.35;;;;;;;13.63;100.00;101848.28;5113065;27;20035;-49
2023/05/13 01:24:49;;;;;;;13.00;5.63;;;;;;;13.63;100.00;101844.75;5106185;27;20032;-47
2023/05/13 01:27:15;;;;;;;9.20;6.15;;;;;;;13.54;100.00;101841.34;5112028;27;20031;-48
2023/05/13 01:29:41;;;;;;;9.77;5.20;;;;;;;13.43;100.00;101837.25;5093222;27;20066;-48
2023/05/13 01:32:08;;;;;;;10.40;6.65;;;;;;;13.38;100.00;101833.47;5112012;27;20244;-48
2023/05/13 01:34:35;;;;;;;8.13;4.95;;;;;;;13.40;100.00;101834.09;5105039;27;20448;-51
2023/05/13 01:37:00;;;;;;;13.75;5.00;;;;;;;13.48;100.00;101832.22;5114139;27;20507;-46
2023/05/13 01:39:27;;;;;;;9.88;4.10;;;;;;;13.64;100.00;101825.94;5109857;27;20047;-47
2023/05/13 01:41:52;;;;;;;7.68;5.22;;;;;;;13.45;100.00;101827.25;5105793;27;20023;-50
2023/05/13 01:44:18;;;;;;;10.05;4.97;;;;;;;13.26;100.00;101822.34;5108659;27;20480;-48
2023/05/13 01:46:43;;;;;;;12.93;7.53;;;;;;;13.40;100.00;101831.44;5112048;27;20124;-45
2023/05/13 01:49:09;;;;;;;8.02;4.95;;;;;;;13.07;100.00;101807.66;5114500;27;20026;-52
2023/05/13 01:51:39;;;;;;;5.32;4.72;;;;;;;13.24;100.00;101825.19;5113055;27;20030;-49
2023/05/13 01:54:04;;;;;;;5.43;4.18;;;;;;;13.11;100.00;101814.25;5103025;27;20483;-46
2023/05/13 01:56:29;;;;;;;8.75;6.82;;;;;;;13.12;100.00;101818.59;5102987;27;20031;-46
2023/05/13 01:58:55;;;;;;;8.68;5.60;;;;;;;13.27;100.00;101819.53;5107791;27;20042;-51
2023/05/13 02:01:20;;;;;;;8.98;5.72;;;;;;;13.25;100.00;101824.19;5112579;27;20084;-46
2023/05/13 02:03:46;;;;;;;8.73;4.38;;;;;;;13.19;100.00;101824.03;5110492;27;20179;-52
2023/05/13 02:06:11;;;;;;;9.25;4.20;;;;;;;13.31;100.00;101822.69;5105642;27;20388;-47
2023/05/13 02:08:36;;;;;;;5.85;3.63;;;;;;;13.23;100.00;101823.53;5115041;27;20042;-46
2023/05/13 02:11:02;;;;;;;9.50;5.43;;;;;;;13.06;100.00;101821.94;5112261;27;20306;-48
2023/05/13 02:13:27;;;;;;;8.57;3.67;;;;;;;13.04;100.00;101823.97;5110049;27;20035;-47
2023/05/13 02:15:53;;;;;;;10.25;5.47;;;;;;;13.02;100.00;101820.66;5109653;27;20047;-47
2023/05/13 02:18:18;;;;;;;7.95;4.93;;;;;;;13.16;100.00;101825.22;5112535;27;20460;-47
2023/05/13 02:20:44;;;;;;;8.73;4.88;;;;;;;13.01;100.00;101822.50;5110121;27;20147;-50
2023/05/13 02:23:10;;;;;;;7.63;5.00;;;;;;;13.12;100.00;101823.94;5122208;27;20508;-48
2023/05/13 02:25:36;;;;;;;4.40;4.00;;;;;;;13.05;100.00;101825.63;5123512;27;20027;-46
2023/05/13 02:28:01;;;;;;;10.00;4.38;;;;;;;13.11;100.00;101819.59;5111351;27;20380;-51
2023/05/13 02:30:26;;;;;;;7.40;4.70;;;;;;;13.18;100.00;101817.06;5111563;27;20035;-49
2023/05/13 02:32:52;;;;;;;8.25;4.97;;;;;;;13.09;100.00;101818.97;5110829;27;20068;-51
2023/05/13 02:35:18;;;;;;;7.40;5.45;;;;;;;13.01;100.00;101821.63;5114366;27;20550;-47
2023/05/13 02:37:44;;;;;;;6.88;5.53;;;;;;;12.96;100.00;101811.53;5118149;27;20037;-46
2023/05/13 02:40:10;;;;;;;8.50;5.93;;;;;;;12.91;100.00;101823.69;5112885;27;20126;-47
2023/05/13 02:42:35;;;;;;;7.70;4.85;;;;;;;12.96;100.00;101837.31;5120344;27;20188;-47
2023/05/13 02:45:01;;;;;;;7.68;5.25;;;;;;;13.12;100.00;101829.25;5116743;27;20044;-49
2023/05/13 02:47:26;;;;;;;8.65;6.40;;;;;;;13.13;100.00;101827.41;5117462;27;20115;-49
2023/05/13 02:49:53;;;;;;;7.03;4.85;;;;;;;13.00;100.00;101828.81;5115605;27;20501;-48
2023/05/13 02:52:18;;;;;;;11.73;6.68;;;;;;;13.14;100.00;101832.59;5123346;27;20146;-45
2023/05/13 02:54:43;;;;;;;10.35;5.60;;;;;;;13.23;100.00;101836.00;5113610;27;20411;-48
2023/05/13 02:57:09;;;;;;;7.70;5.47;;;;;;;13.10;100.00;101825.94;5116294;27;20035;-49
2023/05/13 02:59:34;;;;;;;11.27;5.38;;;;;;;13.09;100.00;101822.44;5110454;27;20027;-48
2023/05/13 03:01:59;;;;;;;15.65;7.18;;;;;;;13.18;100.00;101823.22;5113590;27;20028;-49
2023/05/13 03:04:25;;;;;;;9.15;5.30;;;;;;;13.23;100.00;101822.69;5118774;27;20027;-47
2023/05/13 03:06:51;;;;;;;9.40;5.45;;;;;;;13.31;100.00;101825.34;5124927;27;20511;-49
2023/05/13 03:09:17;;;;;;;10.63;5.35;;;;;;;13.28;100.00;101818.53;5129367;27;20115;-50
2023/05/13 03:11:42;;;;;;;7.78;5.70;;;;;;;13.27;100.00;101822.22;5128431;27;20102;-46
2023/05/13 03:14:07;;;;;;;5.78;4.13;;;;;;;13.20;100.00;101829.22;5111431;27;20028;-47
2023/05/13 03:16:32;;;;;;;6.32;4.22;;;;;;;13.12;100.00;101823.94;5115323;27;20480;-49
2023/05/13 03:18:58;;;;;;;5.85;4.32;;;;;;;13.26;100.00;101817.88;5117780;27;20118;-50
2023/05/13 03:21:23;;;;;;;6.05;5.45;;;;;;;13.13;100.00;101830.91;5128037;27;20038;-48
2023/05/13 03:23:48;;;;;;;4.43;4.03;;;;;;;13.18;100.00;101825.88;5118365;27;20373;-46
2023/05/13 03:26:14;;;;;;;6.35;3.65;;;;;;;13.17;100.00;101818.09;5117517;27;20110;-48
2023/05/13 03:28:39;;;;;;;8.38;5.05;;;;;;;13.15;100.00;101834.22;5115019;27;20031;-46
2023/05/13 03:31:04;;;;;;;6.50;4.30;;;;;;;13.23;100.00;101830.69;5119443;27;20029;-50
2023/05/13 03:33:30;;;;;;;6.80;4.18;;;;;;;13.21;100.00;101822.03;5118420;27;20293;-50
2023/05/13 03:35:55;;;;;;;5.63;3.75;;;;;;;13.28;100.00;101826.53;5125155;27;20052;-45
2023/05/13 03:38:20;;;;;;;3.63;3.15;;;;;;;13.28;100.00;101826.53;5115560;27;20027;-48
2023/05/13 03:40:46;;;;;;;9.55;4.43;;;;;;;13.22;100.00;101826.38;5120790;27;20502;-50
2023/05/13 03:43:11;;;;;;;7.00;4.25;;;;;;;13.30;100.00;101832.50;5098631;28;20118;-47
2023/05/13 03:45:36;;;;;;;10.50;4.03;;;;;;;13.44;100.00;101833.56;5122625;27;20091;-48
2023/05/13 03:48:02;;;;;;;7.68;2.53;;;;;;;13.41;100.00;101838.44;5116270;27;20035;-47
2023/05/13 03:50:27;;;;;;;6.55;2.88;;;;;;;13.31;100.00;101842.16;5116989;27;20569;-48
2023/05/13 03:52:53;;;;;;;7.82;3.28;;;;;;;12.33;100.00;101853.16;5122251;27;20045;-46
2023/05/13 03:55:18;;;;;;;7.95;2.83;;;;;;;13.01;100.00;101845.59;5115514;27;20505;-48
2023/05/13 03:57:47;;;;;;;6.03;2.95;;;;;;;13.14;100.00;101843.22;5118729;27;20035;-46
2023/05/13 04:00:13;;;;;;;4.72;2.50;;;;;;;13.13;100.00;101849.53;5116368;27;20248;-47
2023/05/13 04:02:38;;;;;;;9.18;4.15;;;;;;;13.23;100.00;101844.00;5114015;27;20304;-48
2023/05/13 04:05:05;;;;;;;4.90;2.63;;;;;;;12.98;100.00;101854.75;5116920;27;20034;-45
2023/05/13 04:07:30;;;;;;;8.13;3.05;;;;;;;13.06;100.00;101853.91;5112528;27;20484;-49
2023/05/13 04:09:55;;;;;;;4.63;1.92;;;;;;;13.27;100.00;101845.34;5120503;27;20031;-48
2023/05/13 04:12:21;;;;;;;5.03;3.13;;;;;;;13.42;100.00;101848.06;5122122;27;20035;-48
2023/05/13 04:14:46;;;;;;;5.28;1.85;;;;;;;13.39;100.00;101851.09;5124303;27;20443;-48
2023/05/13 04:17:11;;;;;;;6.60;3.75;;;;;;;13.23;100.00;101844.81;5116436;27;20047;-46
2023/05/13 04:19:36;;;;;;;10.43;4.07;;;;;;;13.25;100.00;101837.50;5114277;27;20075;-45
2023/05/13 04:22:02;;;;;;;9.30;3.25;;;;;;;13.30;100.00;101845.81;5118384;27;20039;-49
2023/05/13 04:24:27;;;;;;;5.10;2.97;;;;;;;13.29;100.00;101844.19;5117122;27;20034;-49
2023/05/13 04:26:52;;;;;;;6.90;4.13;;;;;;;12.85;100.00;101850.00;5101189;27;20050;-46
2023/05/13 04:29:18;;;;;;;2.22;2.03;;;;;;;13.22;100.00;101853.00;5118641;27;20037;-47
2023/05/13 04:31:43;;;;;;;6.35;3.30;;;;;;;13.38;100.00;101852.94;5117914;27;20023;-48
2023/05/13 04:34:09;;;;;;;4.32;2.85;;;;;;;13.21;100.00;101857.47;5113009;27;20438;-49
2023/05/13 04:36:34;;;;;;;7.13;3.38;;;;;;;13.05;100.00;101857.56;5122251;27;20756;-49
2023/05/13 04:38:59;;;;;;;3.03;1.55;;;;;;;13.11;100.00;101862.19;5112870;27;20040;-48
2023/05/13 04:41:25;;;;;;;3.65;2.13;;;;;;;13.14;100.00;101859.22;5127044;27;20287;-47
2023/05/13 04:43:50;;;;;;;5.22;1.98;;;;;;;13.25;100.00;101861.47;5111226;27;20046;-47
2023/05/13 04:46:15;;;;;;;6.60;2.00;;;;;;;13.18;100.00;101860.50;5120504;27;20080;-45
2023/05/13 04:48:41;;;;;;;3.15;1.48;;;;;;;12.94;100.00;101876.59;5110056;27;20027;-52
2023/05/13 04:51:07;;;;;;;7.80;2.28;;;;;;;13.31;100.00;101862.63;5115292;27;20037;-48
2023/05/13 04:53:32;;;;;;;4.50;1.88;;;;;;;13.43;100.00;101863.06;5113573;27;20155;-49
2023/05/13 04:55:59;;;;;;;3.35;1.48;;;;;;;13.50;100.00;101870.19;5119551;27;20023;-50
2023/05/13 04:58:26;;;;;;;4.10;1.77;;;;;;;13.47;100.00;101865.19;5120031;27;20038;-48
2023/05/13 05:00:51;;;;;;;2.33;1.88;;;;;;;13.57;100.00;101874.81;5121412;27;20571;-46
2023/05/13 05:03:17;;;;;;;3.50;2.35;;;;;;;13.62;100.00;101870.59;5117241;27;20042;-52
2023/05/13 05:05:42;;;;;;;4.68;1.60;;;;;;;13.74;100.00;101869.19;5120031;27;20035;-49
2023/05/13 05:08:07;;;;;;;2.80;1.80;;;;;;;13.67;100.00;101868.22;5116933;27;20429;-50
2023/05/13 05:10:33;;;;;;;3.85;2.42;;;;;;;13.49;100.00;101881.84;5117658;27;20031;-48
2023/05/13 05:12:58;;;;;;;3.15;2.10;;;;;;;13.43;100.00;101887.06;5113050;27;20035;-52
2023/05/13 05:15:24;;;;;;;5.13;1.85;;;;;;;13.36;100.00;101888.75;5119817;27;20525;-44
2023/05/13 05:17:49;;;;;;;2.17;1.58;;;;;;;13.46;100.00;101887.53;5120150;27;20072;-48
2023/05/13 05:20:15;;;;;;;7.40;2.38;;;;;;;13.42;100.00;101890.69;5123782;27;20075;-47
2023/05/13 05:22:40;;;;;;;5.38;2.70;;;;;;;13.32;100.00;101888.28;5119005;27;20031;-48
2023/05/13 05:25:07;;;;;;;3.42;1.77;;;;;;;13.36;100.00;101881.59;5113205;27;20028;-50
2023/05/13 05:27:32;;;;;;;1.55;1.45;;;;;;;13.35;100.00;101889.78;5116032;27;20028;-47
2023/05/13 05:29:57;;;;;;;3.60;2.35;;;;;;;13.31;100.00;101884.75;5118308;27;20387;-48
2023/05/13 05:32:23;;;;;;;5.60;3.00;;;;;;;13.19;100.00;101894.13;5118481;27;20057;-50
2023/05/13 05:34:48;;;;;;;3.75;1.90;;;;;;;13.16;100.00;101894.47;5121727;27;20069;-46
2023/05/13 05:37:14;;;;;;;2.67;2.47;;;;;;;13.25;100.00;101892.59;5114698;27;20039;-45
2023/05/13 05:39:40;;;;;;;4.72;2.47;;;;;;;13.24;100.00;101894.44;5110143;27;20035;-50
2023/05/13 05:42:06;;;;;;;3.00;2.63;;;;;;;13.39;100.00;101883.06;5119472;27;20055;-49
2023/05/13 05:44:32;;;;;;;5.57;1.80;;;;;;;13.63;100.00;101884.75;5108939;27;20036;-47
2023/05/13 05:46:57;;;;;;;6.97;2.03;;;;;;;13.74;100.00;101892.34;5118253;27;20029;-46
2023/05/13 05:49:22;;;;;;;2.45;1.58;;;;;;;13.60;100.00;101893.91;5118805;27;20038;-46
2023/05/13 05:51:48;;;;;;;2.00;1.67;;;;;;;13.30;100.00;101900.94;5120378;27;20519;-48
2023/05/13 05:54:13;;;;;;;4.07;2.47;;;;;;;13.24;100.00;101898.91;5118111;27;20039;-48
2023/05/13 05:56:38;;;;;;;3.10;2.63;;;;;;;13.47;100.00;101889.16;5118266;27;20533;-47
2023/05/13 05:59:04;;;;;;;3.40;2.60;;;;;;;13.56;100.00;101892.63;5124540;27;20498;-50
2023/05/13 06:01:35;;;;;;;8.30;2.65;;;;;;;11.12;100.00;101911.25;5114523;27;21264;-47
2023/05/13 06:04:00;;;;;;;3.58;2.60;;;;;;;9.89;100.00;101923.66;5120110;27;20033;-51
2023/05/13 06:06:26;;;;;;;4.07;3.20;;;;;;;11.06;100.00;101922.53;5121469;27;20036;-46
2023/05/13 06:08:51;;;;;;;3.03;2.65;;;;;;;10.89;100.00;101916.28;5115847;27;20510;-45
2023/05/13 06:11:16;;;;;;;3.65;1.85;;;;;;;11.44;100.00;101920.34;5121706;27;20125;-50
2023/05/13 06:13:42;;;;;;;4.55;2.40;;;;;;;11.43;100.00;101922.16;5119505;27;20035;-49
2023/05/13 06:16:08;;;;;;;4.95;1.75;;;;;;;11.94;100.00;101912.31;5120514;27;20035;-49
2023/05/13 06:18:33;;;;;;;4.65;2.75;;;;;;;11.88;100.00;101920.13;5123843;27;20407;-48
2023/05/13 06:20:58;;;;;;;4.70;2.42;;;;;;;12.56;100.00;101922.44;5123869;27;20035;-48
2023/05/13 06:23:24;;;;;;;4.63;1.60;;;;;;;12.97;100.00;101918.84;5126606;27;20054;-49
2023/05/13 06:25:49;;;;;;;4.68;1.85;;;;;;;13.01;100.00;101914.81;5120127;27;20466;-49
2023/05/13 06:28:15;;;;;;;7.05;2.05;;;;;;;13.05;100.00;101921.47;5117883;27;20086;-47
2023/05/13 06:30:40;;;;;;;3.38;1.73;;;;;;;12.93;100.00;101922.84;5115585;27;20024;-45
2023/05/13 06:33:09;;;;;;;4.32;2.33;;;;;;;12.86;100.00;101928.88;5117611;27;20027;-48
2023/05/13 06:35:34;;;;;;;3.97;3.38;;;;;;;12.65;100.00;101931.25;5117357;27;20039;-48
2023/05/13 06:38:00;;;;;;;5.90;3.50;;;;;;;12.59;100.00;101926.59;5119049;27;20081;-49
2023/05/13 06:40:25;;;;;;;5.57;3.92;;;;;;;12.70;100.00;101926.25;5113370;27;20065;-50
2023/05/13 06:42:50;;;;;;;4.78;3.53;;;;;;;12.68;100.00;101928.25;5111660;27;20316;-48
2023/05/13 06:45:17;;;;;;;4.43;3.80;;;;;;;12.81;100.00;101930.38;5120322;27;20155;-46
2023/05/13 06:47:42;;;;;;;3.60;3.22;;;;;;;12.81;100.00;101931.22;5112799;27;20910;-46
2023/05/13 06:50:08;;;;;;;4.15;3.83;;;;;;;12.60;100.00;101922.94;5107613;27;20032;-46
2023/05/13 06:52:33;;;;;;;7.38;4.45;;;;;;;12.52;100.00;101934.44;5112484;27;20138;-46
2023/05/13 06:54:59;;;;;;;4.93;3.97;;;;;;;12.68;100.00;101936.22;5119199;27;20467;-47
2023/05/13 06:57:25;;;;;;;6.80;4.53;;;;;;;12.80;100.00;101926.91;5115909;27;20034;-48
2023/05/13 06:59:50;;;;;;;8.70;5.20;;;;;;;12.69;100.00;101927.25;5122314;27;20039;-46
2023/05/13 07:02:15;;;;;;;6.47;4.30;;;;;;;12.59;100.00;101932.72;5121370;27;20022;-51
2023/05/13 07:04:40;;;;;;;13.10;5.18;;;;;;;12.68;100.00;101936.22;5114177;27;20508;-47
2023/05/13 07:07:06;;;;;;;6.47;3.50;;;;;;;12.62;100.00;101934.22;5113778;27;20046;-49
2023/05/13 07:09:33;;;;;;;4.03;3.50;;;;;;;12.63;100.00;101942.06;5110591;27;20027;-47
2023/05/13 07:11:58;;;;;;;4.20;3.67;;;;;;;12.55;100.00;101942.06;5115257;27;20046;-47
2023/05/13 07:14:24;;;;;;;5.50;4.38;;;;;;;12.39;100.00;101947.38;5121081;27;20037;-45
2023/05/13 07:16:50;;;;;;;7.90;3.95;;;;;;;12.29;100.00;101944.06;5124358;27;20027;-46
2023/05/13 07:19:15;;;;;;;4.45;3.75;;;;;;;12.05;100.00;101958.19;5117690;27;20031;-51
2023/05/13 07:21:40;;;;;;;5.85;4.13;;;;;;;12.27;100.00;101946.91;5127455;27;20023;-52
2023/05/13 07:24:06;;;;;;;4.07;3.20;;;;;;;12.02;100.00;101953.22;5117736;27;20682;-54
2023/05/13 07:26:31;;;;;;;6.65;3.72;;;;;;;12.25;100.00;101956.88;5111159;27;20032;-49
2023/05/13 07:28:58;;;;;;;7.38;3.70;;;;;;;11.92;100.00;101956.84;5118922;27;20077;-49
2023/05/13 07:31:23;;;;;;;5.53;3.33;;;;;;;12.33;100.00;101954.22;5116649;27;20038;-45
2023/05/13 07:33:48;;;;;;;3.17;2.45;;;;;;;12.56;100.00;101965.00;5116496;27;20020;-50
2023/05/13 07:36:14;;;;;;;8.27;2.60;;;;;;;12.47;100.00;101963.38;5122204;27;20075;-49
2023/05/13 07:38:39;;;;;;;3.97;2.88;;;;;;;11.30;100.00;101965.09;5120184;27;20043;-46
2023/05/13 07:41:04;;;;;;;10.43;2.67;;;;;;;10.73;100.00;101977.22;5120605;27;20043;-48
2023/05/13 07:43:30;;;;;;;4.22;1.50;;;;;;;11.46;100.00;101966.16;5117956;27;20031;-49
2023/05/13 07:45:56;;;;;;;3.92;2.00;;;;;;;12.56;100.00;101958.84;5115287;27;20036;-51
2023/05/13 07:48:23;;;;;;;2.25;1.92;;;;;;;12.73;100.00;101949.03;5115685;27;20485;-44
2023/05/13 07:50:48;;;;;;;1.92;1.67;;;;;;;12.86;100.00;101957.31;5118143;27;20042;-49
2023/05/13 07:53:14;;;;;;;5.32;2.05;;;;;;;13.00;100.00;101950.44;5112065;27;20420;-47
2023/05/13 07:55:40;;;;;;;2.78;1.73;;;;;;;13.03;100.00;101950.09;5112796;27;20030;-46
2023/05/13 07:58:05;;;;;;;2.42;1.75;;;;;;;13.31;100.00;101947.88;5123946;27;20027;-47
2023/05/13 08:00:30;;;;;;;2.80;2.35;;;;;;;12.12;100.00;101953.88;5121640;27;20027;-47
2023/05/13 08:02:56;;;;;;;3.60;2.03;;;;;;;13.06;100.00;101947.09;5116361;27;20062;-48
2023/05/13 08:05:21;;;;;;;2.10;1.92;;;;;;;13.09;100.00;101944.94;5116377;27;20109;-48
2023/05/13 08:07:46;;;;;;;9.15;2.38;;;;;;;12.34;100.00;101947.91;5114179;27;20133;-47
2023/05/13 08:10:12;;;;;;;4.63;1.75;;;;;;;11.05;100.00;101963.34;5116665;27;20042;-48
2023/05/13 08:12:39;;;;;;;5.35;1.60;;;;;;;10.78;100.00;101969.63;5118956;27;20019;-46
2023/05/13 08:15:06;;;;;;;4.30;1.60;;;;;;;10.82;100.00;101978.97;5125415;27;20049;-48
2023/05/13 08:17:32;;;;;;;7.03;2.83;;;;;;;12.13;100.00;101971.47;5114448;27;20637;-50
2023/05/13 08:19:57;;;;;;;5.25;2.83;;;;;;;13.03;100.00;101971.41;5121937;27;20050;-49
2023/05/13 08:22:22;;;;;;;4.28;2.33;;;;;;;12.92;100.00;101961.13;5108297;27;20387;-49
2023/05/13 08:24:47;;;;;;;3.00;2.45;;;;;;;12.94;100.00;101967.13;5111411;27;20330;-49
2023/05/13 08:27:13;;;;;;;3.85;2.78;;;;;;;13.06;100.00;101963.06;5109773;27;20063;-47
2023/05/13 08:29:38;;;;;;;8.43;3.22;;;;;;;13.27;100.00;101960.72;5114793;27;20088;-47
2023/05/13 08:32:04;;;;;;;3.38;2.70;;;;;;;13.20;100.00;101956.22;5109020;27;20031;-52
2023/05/13 08:34:29;;;;;;;4.40;3.90;;;;;;;13.11;100.00;101958.06;5109215;27;20090;-51
2023/05/13 08:36:55;;;;;;;3.67;1.77;;;;;;;13.60;100.00;101960.53;5107142;27;20111;-45
2023/05/13 08:39:20;;;;;;;5.57;2.85;;;;;;;13.46;100.00;101953.31;5107849;27;20053;-48
2023/05/13 08:41:48;;;;;;;2.90;2.55;;;;;;;13.16;100.00;101960.22;5104881;27;20134;-47
2023/05/13 08:44:14;;;;;;;5.35;2.60;;;;;;;12.78;100.00;101965.31;5118405;27;20101;-47
2023/05/13 08:46:46;;;;;;;6.45;3.63;;;;;;;12.79;100.00;101969.63;5109154;27;20061;-50
2023/05/13 08:49:12;;;;;;;5.25;3.45;;;;;;;13.04;100.00;101967.75;5111778;27;20072;-49
2023/05/13 08:51:37;;;;;;;4.85;3.67;;;;;;;12.98;100.00;101969.25;5114463;27;20258;-48
2023/05/13 08:54:04;;;;;;;10.63;5.07;;;;;;;13.20;100.00;101958.88;5113996;27;20110;-50
2023/05/13 08:56:29;;;;;;;4.80;3.30;;;;;;;13.44;100.00;101953.47;5108880;27;20038;-47
2023/05/13 08:58:55;;;;;;;8.35;3.70;;;;;;;13.74;100.00;101954.47;5116412;27;20024;-47
2023/05/13 09:01:23;;;;;;;4.88;4.28;;;;;;;13.76;100.00;101948.97;5113061;27;20428;-48
2023/05/13 09:03:58;;;;;;;5.70;4.28;;;;;;;13.64;100.00;101953.88;5116594;27;20155;-45
2023/05/13 09:06:23;;;;;;;7.97;4.60;;;;;;;13.49;100.00;101953.78;5123982;27;20033;-50
2023/05/13 09:08:49;;;;;;;9.82;4.57;;;;;;;13.83;100.00;101952.56;5113881;27;20597;-53
2023/05/13 09:11:15;;;;;;;5.78;3.63;;;;;;;13.94;100.00;101943.38;5111681;27;20046;-48
2023/05/13 09:13:43;;;;;;;8.35;4.03;;;;;;;14.13;100.00;101940.22;5113688;27;20209;-49
2023/05/13 09:16:08;;;;;;;5.90;3.63;;;;;;;14.19;100.00;101944.00;5113317;27;20391;-49
2023/05/13 09:18:34;;;;;;;3.00;2.60;;;;;;;14.13;100.00;101948.22;5117214;27;20035;-48
2023/05/13 09:21:36;;;;;;;6.60;2.92;;;;;;;14.12;100.00;101946.56;5114238;27;20027;-48
2023/05/13 09:24:09;;;;;;;6.40;3.38;;;;;;;14.12;100.00;101943.03;5118353;27;20030;-48
2023/05/13 09:26:34;;;;;;;5.38;3.65;;;;;;;13.98;100.00;101947.31;5112504;27;20039;-46
2023/05/13 09:29:23;;;;;;;15.70;3.75;;;;;;;14.33;100.00;101943.22;5103446;27;20031;-47
2023/05/13 09:31:54;;;;;;;7.13;4.20;;;;;;;14.15;100.00;101943.53;5116266;27;20034;-51
2023/05/13 09:34:33;;;;;;;22.17;3.13;;;;;;;14.12;100.00;101951.91;5123313;27;20031;-49
2023/05/13 09:37:07;;;;;;;3.50;2.88;;;;;;;14.33;100.00;101943.22;5119196;27;20081;-52
2023/05/13 09:39:37;;;;;;;3.20;2.40;;;;;;;14.50;100.00;101949.22;5118259;27;20484;-52
2023/05/13 09:42:03;;;;;;;5.25;2.35;;;;;;;14.72;100.00;101952.88;5122044;27;21168;-51
2023/05/13 09:44:28;;;;;;;3.40;3.10;;;;;;;14.86;100.00;101948.56;5124252;27;20118;-52
2023/05/13 09:46:54;;;;;;;6.22;3.13;;;;;;;14.83;100.00;101948.94;5122952;27;20054;-53
2023/05/13 09:49:23;;;;;;;2.75;2.10;;;;;;;14.40;100.00;101951.31;5118762;27;20544;-53
2023/05/13 09:51:48;;;;;;;5.32;2.80;;;;;;;14.44;100.00;101952.63;5118916;27;20023;-51
2023/05/13 09:54:14;;;;;;;2.40;2.20;;;;;;;14.90;100.00;101949.03;5135049;27;20034;-50
2023/05/13 09:56:39;;;;;;;6.88;2.97;;;;;;;15.06;100.00;101948.84;5135133;27;20031;-55
2023/05/13 09:59:04;;;;;;;3.58;2.20;;;;;;;14.77;100.00;101947.00;5137572;27;20019;-51
2023/05/13 10:01:30;;;;;;;4.35;2.47;;;;;;;14.83;100.00;101952.44;5130184;27;20026;-50
2023/05/13 10:03:58;;;;;;;2.88;1.65;;;;;;;14.91;100.00;101950.69;5137403;27;20023;-50
2023/05/13 10:06:25;;;;;;;2.83;1.58;;;;;;;14.83;100.00;101948.94;5108063;27;20487;-50
2023/05/13 10:08:52;;;;;;;3.42;2.10;;;;;;;14.89;100.00;101942.84;5128927;27;20333;-52
2023/05/13 10:11:18;;;;;;;3.85;2.10;;;;;;;14.76;100.00;101943.47;5132823;27;20023;-53
2023/05/13 10:13:57;;;;;;;3.75;1.48;;;;;;;14.83;100.00;101943.59;5132114;27;20106;-51
2023/05/13 10:16:23;;;;;;;5.85;1.88;;;;;;;14.74;100.00;101947.34;5132928;27;20054;-49
2023/05/13 10:18:50;;;;;;;3.85;2.40;;;;;;;14.82;100.00;101947.28;5129881;27;20053;-50
2023/05/13 10:21:17;;;;;;;2.83;2.42;;;;;;;14.77;100.00;101950.50;5134005;27;20030;-52
2023/05/13 10:23:44;;;;;;;2.60;2.33;;;;;;;14.97;100.00;101950.78;5132009;27;20022;-54
2023/05/13 10:26:10;;;;;;;5.00;2.45;;;;;;;15.08;100.00;101944.16;5135963;27;20033;-49
2023/05/13 10:28:37;;;;;;;9.60;3.13;;;;;;;14.78;100.00;101948.66;5133270;27;20414;-50
2023/05/13 10:31:03;;;;;;;6.90;3.67;;;;;;;14.78;100.00;101948.66;5130804;27;20427;-53
2023/05/13 10:33:29;;;;;;;6.05;3.03;;;;;;;15.00;100.00;101945.06;5136510;27;20077;-51
2023/05/13 10:36:20;;;;;;;3.65;2.88;;;;;;;15.30;100.00;101939.69;5132855;27;20353;-54
2023/05/13 10:38:58;;;;;;;4.53;2.90;;;;;;;15.27;100.00;101943.56;5134753;27;20043;-54
2023/05/13 10:41:45;;;;;;;5.00;3.13;;;;;;;15.73;100.00;101933.66;5116173;27;20042;-53
2023/05/13 10:44:11;;;;;;;3.60;3.28;;;;;;;15.52;100.00;101948.59;5115961;27;20138;-51
2023/05/13 10:46:38;;;;;;;5.32;3.58;;;;;;;15.30;100.00;101939.69;5125114;27;20395;-53
2023/05/13 10:49:04;;;;;;;4.20;3.38;;;;;;;14.98;100.00;101938.25;5135457;27;20398;-51
2023/05/13 10:51:31;;;;;;;4.00;3.58;;;;;;;14.74;100.00;101939.34;5137836;27;20035;-50
2023/05/13 10:53:57;;;;;;;4.22;3.28;;;;;;;14.85;100.00;101941.56;5120052;27;20036;-48
2023/05/13 10:56:25;;;;;;;6.65;4.65;;;;;;;14.88;100.00;101941.19;5110896;27;20077;-51
2023/05/13 10:58:57;;;;;;;5.25;3.97;;;;;;;14.92;100.00;101926.47;5123990;27;20028;-49
2023/05/13 11:01:32;;;;;;;8.35;4.35;;;;;;;15.17;100.00;101929.66;5115188;27;20054;-52
2023/05/13 11:04:03;;;;;;;5.00;3.15;;;;;;;15.46;100.00;101925.28;5122691;27;20453;-51
2023/05/13 11:06:39;;;;;;;3.95;3.20;;;;;;;15.83;100.00;101926.16;5119700;27;20118;-51
2023/05/13 11:09:31;;;;;;;6.60;3.53;;;;;;;15.60;100.00;101921.75;5131104;27;20498;-50
2023/05/13 11:11:57;;;;;;;;;;;;;;;16.06;100.00;101918.75;5116345;27;20047;-54
2023/05/13 11:14:25;;;;;;;5.22;2.45;;;;;;;16.23;100.00;101913.94;5124277;27;19988;-53